This is the latest recevied weather packets stored in our database for station/object K5YNC. If no packets are shown the sender has not sent any weather packets the latest 1 day(s).
| Time | Temp. | Humidity | Pressure | Rain* | Wind** | Luminosity | Snow |
|---|---|---|---|---|---|---|---|
| 1778101722 | 17.78° C | 62% | 1016.8 hPa | 0 mm | - | 420 W/m² | - |
| 1778101116 | 17.78° C | 63% | 1016.8 hPa | 0 mm | - | 331 W/m² | - |
| 1778100812 | 17.22° C | 64% | 1016.9 hPa | 0 mm | - | 330 W/m² | - |
| 1778100206 | 17.78° C | 63% | 1017 hPa | 0 mm | - | 666 W/m² | - |
| 1778098691 | 17.22° C | 65% | 1017.4 hPa | 0 mm | - | 432 W/m² | - |
| 1778096872 | 16.67° C | 64% | 1016.8 hPa | 0 mm | - | 466 W/m² | - |
| 1778096568 | 16.11° C | 65% | 1016.7 hPa | 0 mm | - | 472 W/m² | - |
| 1778096266 | 16.11° C | 66% | 1016.5 hPa | 0 mm | - | 295 W/m² | - |
| 1778094446 | 16.11° C | 63% | 1016.7 hPa | 0 mm | - | 639 W/m² | - |
| 1778092323 | 15.56° C | 66% | 1016.6 hPa | 0 mm | - | 839 W/m² | - |
| 1778088688 | 14.44° C | 67% | 1017.3 hPa | 0 mm | - | 660 W/m² | - |
| 1778086871 | 13.89° C | 69% | 1017.4 hPa | 0 mm | - | 446 W/m² | - |
| 1778085660 | 13.89° C | 70% | 1017.3 hPa | 0 mm | - | 350 W/m² | - |
| 1778085355 | 14.44° C | 67% | 1017.4 hPa | 0 mm | - | 349 W/m² | - |
| 1778085052 | 14.44° C | 67% | 1017.4 hPa | 0 mm | - | 473 W/m² | - |
| 1778084143 | 13.33° C | 69% | 1018.3 hPa | 0 mm | - | 316 W/m² | - |
| 1778083234 | 13.33° C | 70% | 1018.5 hPa | 0 mm | - | 287 W/m² | - |
| 1778081521 | 12.78° C | 72% | 1017.6 hPa | 0 mm | - | 177 W/m² | - |
| 1778081218 | 12.22° C | 72% | 1018.1 hPa | 0 mm | - | 123 W/m² | - |
| 1778080915 | 12.22° C | 72% | 1017.9 hPa | 0 mm | - | 144 W/m² | - |
| 1778080007 | 11.67° C | 73% | 1017.6 hPa | 0 mm | - | 143 W/m² | - |
| 1778079401 | 11.67° C | 73% | 1017.7 hPa | 0 mm | - | 137 W/m² | - |
| 1778076981 | 11.11° C | 74% | 1017.5 hPa | 0 mm | - | 54 W/m² | - |
| 1778076679 | 11.11° C | 74% | 1017.4 hPa | 0 mm | - | 60 W/m² | - |
| 1778076376 | 11.11° C | 73% | 1017.1 hPa | 0 mm | - | 80 W/m² | - |
* Rain latest hour (hover to see other rain measurements)
** Current wind speed in m/s (hover to see current wind gust speed)